createdAt,value
2018-12-03T11:44:45.462Z,14.50
2018-12-03T11:47:22.164Z,14.70
2018-12-03T11:49:57.029Z,15.00
2018-12-03T11:52:26.700Z,15.40
2018-12-03T11:54:56.486Z,15.70
2018-12-03T11:57:33.181Z,15.90
2018-12-03T12:00:10.033Z,16.00
2018-12-03T12:02:39.894Z,16.00
2018-12-03T12:05:07.445Z,16.10
2018-12-03T12:07:35.233Z,16.20
2018-12-03T12:10:11.669Z,16.20
2018-12-03T12:12:44.298Z,16.30
2018-12-03T12:15:12.068Z,16.20
2018-12-03T12:17:39.866Z,16.10
2018-12-03T12:20:16.673Z,16.00
2018-12-03T12:22:44.393Z,15.80
2018-12-03T12:25:14.136Z,15.80
2018-12-03T12:27:50.761Z,15.70
2018-12-03T12:30:18.561Z,15.60
2018-12-03T12:32:48.247Z,15.60
2018-12-03T12:35:24.747Z,15.70
2018-12-03T12:38:01.669Z,15.70
2018-12-03T12:40:31.377Z,15.80
2018-12-03T12:43:01.124Z,15.80
2018-12-03T12:45:28.886Z,15.80
2018-12-03T12:47:58.581Z,15.80
2018-12-03T12:50:31.120Z,15.70
2018-12-03T12:53:00.788Z,15.60
2018-12-03T12:55:37.380Z,15.40
2018-12-03T12:58:05.132Z,15.20
2018-12-03T13:00:41.627Z,14.90
2018-12-03T13:03:11.339Z,14.80
2018-12-03T13:05:39.080Z,14.70
2018-12-03T13:08:15.629Z,14.60
2018-12-03T13:10:45.609Z,14.60
2018-12-03T13:13:22.308Z,14.60
2018-12-03T13:15:49.955Z,14.60
2018-12-03T13:18:19.612Z,14.50
2018-12-03T13:20:47.382Z,14.50
2018-12-03T13:23:17.243Z,14.50
2018-12-03T13:25:49.827Z,14.50
2018-12-03T13:28:26.511Z,14.60
2018-12-03T13:30:59.233Z,14.60
2018-12-03T13:33:43.025Z,14.70
2018-12-03T13:36:19.777Z,14.70
2018-12-03T13:38:54.669Z,14.70
2018-12-03T13:41:24.487Z,14.70
2018-12-03T13:44:00.959Z,14.70
2018-12-03T13:46:38.228Z,14.70
2018-12-03T13:49:32.084Z,14.70
2018-12-03T13:55:06.017Z,14.60
2018-12-03T13:57:35.892Z,14.60
2018-12-03T14:00:13.792Z,14.40
2018-12-03T14:02:43.513Z,14.30
2018-12-03T14:05:20.321Z,14.20
2018-12-03T14:07:48.301Z,14.20
2018-12-03T14:10:17.785Z,14.10
2018-12-03T14:12:48.168Z,14.00
2018-12-03T14:15:19.821Z,14.00
2018-12-03T14:17:49.296Z,14.00
2018-12-03T14:20:25.872Z,14.00
2018-12-03T14:22:55.876Z,14.00
2018-12-03T14:25:23.653Z,13.90
2018-12-03T14:28:00.296Z,13.80
2018-12-03T14:30:32.980Z,13.80
2018-12-03T14:33:00.667Z,13.80
2018-12-03T14:35:37.159Z,13.70
2018-12-03T14:38:13.817Z,13.70
2018-12-03T14:40:50.626Z,13.70
2018-12-03T14:43:25.372Z,13.70
2018-12-03T14:46:02.296Z,13.70
2018-12-03T14:48:39.134Z,13.60
2018-12-03T14:51:08.990Z,13.50
2018-12-03T14:53:45.696Z,13.40
2018-12-03T14:56:13.404Z,13.20
2018-12-03T14:58:50.049Z,13.00
2018-12-03T15:01:20.011Z,12.90
2018-12-03T15:03:49.563Z,12.70
2018-12-03T15:06:26.341Z,12.60
2018-12-03T15:09:01.197Z,12.50
2018-12-03T15:11:29.139Z,12.40
2018-12-03T15:14:01.835Z,12.40
2018-12-03T15:16:36.680Z,12.30
2018-12-03T15:19:11.560Z,12.30
2018-12-03T15:21:38.372Z,12.20
2018-12-03T15:24:13.255Z,12.10
2018-12-03T15:26:37.849Z,12.00
2018-12-03T15:29:14.652Z,11.90
2018-12-03T15:31:44.504Z,11.80
2018-12-03T15:34:20.906Z,11.70
2018-12-03T15:36:57.560Z,11.60
2018-12-03T15:39:32.596Z,11.60
2018-12-03T15:42:02.293Z,11.50
2018-12-03T15:44:38.840Z,11.50
2018-12-03T15:47:08.715Z,11.40
2018-12-03T15:49:45.216Z,11.40
2018-12-03T15:52:15.184Z,11.30
2018-12-03T15:54:51.771Z,11.20
2018-12-03T15:57:28.367Z,11.20
2018-12-03T16:00:03.891Z,11.10
2018-12-03T16:02:34.076Z,11.00
2018-12-03T16:05:10.708Z,10.90
2018-12-03T16:07:40.443Z,10.90
2018-12-03T16:10:16.996Z,10.80
2018-12-03T16:12:46.802Z,10.90
2018-12-03T16:15:19.319Z,10.90
2018-12-03T16:17:59.841Z,10.90
2018-12-03T16:20:28.647Z,11.00
2018-12-03T16:22:58.610Z,10.80
2018-12-03T16:25:35.997Z,10.80
2018-12-03T16:28:10.842Z,10.70
2018-12-03T16:30:45.750Z,10.60
2018-12-03T16:33:22.304Z,10.60
2018-12-03T16:35:52.111Z,10.50
2018-12-03T16:38:30.651Z,10.40
2018-12-03T16:40:58.199Z,10.40
2018-12-03T16:43:25.913Z,10.30
2018-12-03T16:46:10.575Z,10.30
2018-12-03T16:48:40.268Z,10.20
2018-12-03T16:51:09.874Z,10.20
2018-12-03T16:53:46.637Z,10.20
2018-12-03T16:56:16.483Z,10.20
2018-12-03T16:58:53.097Z,10.20
2018-12-03T17:01:23.079Z,10.20
2018-12-03T17:03:59.676Z,10.20
2018-12-03T17:06:36.529Z,10.10
2018-12-03T17:09:11.231Z,10.10
2018-12-03T17:11:41.287Z,10.10
2018-12-03T17:14:11.123Z,10.20
2018-12-03T17:16:40.862Z,10.20
2018-12-03T17:19:17.546Z,10.20
2018-12-03T17:21:50.689Z,10.10
2018-12-03T17:24:26.992Z,10.10
2018-12-03T17:26:59.923Z,9.90
2018-12-03T17:29:29.731Z,9.90
2018-12-03T17:31:59.655Z,9.80
2018-12-03T17:34:29.271Z,9.70
2018-12-03T17:37:05.895Z,9.60
2018-12-03T17:39:33.681Z,9.50
2018-12-03T17:42:03.229Z,9.50
2018-12-03T17:44:32.926Z,9.60
2018-12-03T17:47:09.587Z,9.60
2018-12-03T17:49:37.376Z,9.60
2018-12-03T17:52:07.274Z,9.70
2018-12-03T17:54:43.771Z,9.80
2018-12-03T17:57:13.606Z,9.90
2018-12-03T17:59:43.505Z,10.00
2018-12-03T18:02:13.120Z,10.10
2018-12-03T18:04:49.685Z,10.20
2018-12-03T18:07:26.399Z,10.40
2018-12-03T18:10:01.365Z,10.40
2018-12-03T18:12:30.924Z,10.50
2018-12-03T18:14:58.780Z,10.60
2018-12-03T18:17:35.427Z,10.70
2018-12-03T18:20:12.118Z,10.90
2018-12-03T18:22:41.760Z,11.00
2018-12-03T18:25:21.134Z,11.20
2018-12-03T18:28:06.182Z,11.20
2018-12-03T18:30:34.153Z,11.30
2018-12-03T18:33:02.087Z,11.40
2018-12-03T18:35:38.636Z,11.40
2018-12-03T18:38:11.192Z,11.30
2018-12-03T18:40:41.164Z,11.30
